createdAt,value
2022-08-08T00:02:04.293Z,20.40
2022-08-08T00:04:16.298Z,20.30
2022-08-08T00:06:56.053Z,20.10
2022-08-08T00:09:38.079Z,20.00
2022-08-08T00:12:24.658Z,19.90
2022-08-08T00:15:03.369Z,19.80
2022-08-08T00:17:58.458Z,19.70
2022-08-08T00:20:37.126Z,19.80
2022-08-08T00:41:06.731Z,19.80
2022-08-08T00:43:59.257Z,19.90
2022-08-08T00:50:21.431Z,19.80
2022-08-08T00:52:56.447Z,19.80
2022-08-08T00:55:52.597Z,19.80
2022-08-08T00:58:18.012Z,19.80
2022-08-08T01:00:57.310Z,19.70
2022-08-08T01:04:01.252Z,19.60
2022-08-08T01:06:50.314Z,19.50
2022-08-08T01:09:36.802Z,19.30
2022-08-08T01:12:14.113Z,19.20
2022-08-08T01:15:11.373Z,19.20
2022-08-08T01:17:53.226Z,19.20
2022-08-08T01:20:34.039Z,19.10
2022-08-08T01:23:15.916Z,19.00
2022-08-08T01:26:02.260Z,19.00
2022-08-08T01:28:45.049Z,19.10
2022-08-08T01:32:02.651Z,19.00
2022-08-08T01:34:11.226Z,19.20
2022-08-08T01:36:48.610Z,19.20
2022-08-08T01:39:20.129Z,19.20
2022-08-08T01:42:10.586Z,19.00
2022-08-08T01:48:43.794Z,18.80
2022-08-08T01:51:31.435Z,18.80
2022-08-08T01:55:15.878Z,18.70
2022-08-08T01:56:57.034Z,18.60
2022-08-08T01:59:24.176Z,18.50
2022-08-08T02:02:34.236Z,18.50
2022-08-08T02:05:11.418Z,18.40
2022-08-08T02:07:41.874Z,18.30
2022-08-08T02:10:44.647Z,18.40
2022-08-08T02:13:15.849Z,18.50
2022-08-08T02:16:07.796Z,18.40
2022-08-08T02:18:34.640Z,18.30
2022-08-08T02:21:32.839Z,18.20
2022-08-08T02:24:30.926Z,18.20
2022-08-08T02:27:07.465Z,18.30
2022-08-08T02:29:47.002Z,18.20
2022-08-08T02:32:28.613Z,18.30
2022-08-08T02:35:11.591Z,18.20
2022-08-08T02:37:52.217Z,18.20
2022-08-08T02:40:36.381Z,18.20
2022-08-08T02:44:38.976Z,18.30
2022-08-08T02:49:59.521Z,18.20
2022-08-08T02:52:50.570Z,18.10
2022-08-08T02:55:38.919Z,18.00
2022-08-08T02:58:26.608Z,17.90
2022-08-08T03:00:53.953Z,17.90
2022-08-08T03:05:00.469Z,17.90
2022-08-08T03:06:24.276Z,18.40
2022-08-08T03:09:10.658Z,19.30
2022-08-08T03:12:01.181Z,20.50
2022-08-08T03:16:03.866Z,21.20
2022-08-08T03:17:34.023Z,20.70
2022-08-08T03:20:07.978Z,19.70
2022-08-08T03:22:46.065Z,18.90
2022-08-08T03:25:18.401Z,18.40
2022-08-08T03:27:56.320Z,18.00
2022-08-08T03:30:24.195Z,17.80
2022-08-08T03:33:56.683Z,17.70
2022-08-08T03:35:58.450Z,17.60
2022-08-08T03:38:56.737Z,17.70
2022-08-08T03:42:12.266Z,17.90
2022-08-08T03:43:59.550Z,17.90
2022-08-08T03:50:37.563Z,17.40
2022-08-08T03:53:07.481Z,17.20
2022-08-08T03:55:56.241Z,17.00
2022-08-08T03:58:36.130Z,17.00
2022-08-08T04:01:24.626Z,16.90
2022-08-08T04:04:03.033Z,17.00
2022-08-08T04:06:35.239Z,17.00
2022-08-08T04:09:10.847Z,16.90
2022-08-08T04:11:57.810Z,17.00
2022-08-08T04:14:34.072Z,17.00
2022-08-08T04:17:46.512Z,17.00
2022-08-08T04:20:12.149Z,16.90
2022-08-08T04:22:39.094Z,16.80
2022-08-08T04:25:17.325Z,16.80
2022-08-08T04:28:10.520Z,16.80
2022-08-08T04:30:36.391Z,16.80
2022-08-08T04:33:15.426Z,16.90
2022-08-08T04:35:51.327Z,16.80
2022-08-08T04:38:21.638Z,16.80
2022-08-08T04:40:54.478Z,16.80
2022-08-08T04:43:22.542Z,16.80
2022-08-08T04:46:18.579Z,16.80
2022-08-08T04:49:28.923Z,16.80
2022-08-08T04:52:11.017Z,16.90
2022-08-08T04:54:42.426Z,16.90
2022-08-08T04:57:09.944Z,16.90
2022-08-08T04:59:41.895Z,16.90
2022-08-08T05:02:13.847Z,16.90
2022-08-08T05:04:42.004Z,16.80
2022-08-08T05:07:21.447Z,16.90
2022-08-08T05:09:55.772Z,17.00
2022-08-08T05:12:29.540Z,17.00
2022-08-08T05:14:56.408Z,17.10
2022-08-08T05:17:23.632Z,17.10
2022-08-08T05:20:11.422Z,17.20
2022-08-08T05:22:38.206Z,17.20
2022-08-08T05:25:05.825Z,17.20
2022-08-08T05:27:41.148Z,17.20
2022-08-08T05:30:10.943Z,17.20
2022-08-08T05:32:39.029Z,17.30
2022-08-08T05:35:07.073Z,17.30
2022-08-08T05:37:53.002Z,17.40
2022-08-08T05:40:28.171Z,17.50
2022-08-08T05:42:59.660Z,17.50
2022-08-08T05:45:43.063Z,17.50
2022-08-08T05:52:13.885Z,17.70
2022-08-08T05:54:51.028Z,17.80
2022-08-08T05:57:20.868Z,17.80
2022-08-08T06:00:22.558Z,17.90
2022-08-08T06:03:25.166Z,17.90
2022-08-08T06:06:01.363Z,18.00
2022-08-08T06:08:55.062Z,18.10
2022-08-08T06:11:45.786Z,18.20
2022-08-08T06:14:17.989Z,18.20
2022-08-08T06:16:45.701Z,18.30
2022-08-08T06:19:23.979Z,18.30
2022-08-08T06:21:56.889Z,18.40
2022-08-08T06:24:35.986Z,18.40
2022-08-08T06:27:05.500Z,18.50
2022-08-08T06:30:01.065Z,18.60
2022-08-08T06:32:30.439Z,18.70
2022-08-08T06:36:04.844Z,18.80
2022-08-08T06:38:00.596Z,19.00
2022-08-08T06:40:33.352Z,19.10
2022-08-08T06:43:09.737Z,19.10
2022-08-08T06:45:39.013Z,19.30
2022-08-08T06:52:04.684Z,19.40
2022-08-08T06:54:32.727Z,19.50
2022-08-08T06:57:00.706Z,19.60
2022-08-08T06:59:27.421Z,19.70
2022-08-08T07:02:26.291Z,19.80
2022-08-08T07:05:11.906Z,20.00
2022-08-08T07:07:55.384Z,20.00
2022-08-08T07:10:24.328Z,20.10
2022-08-08T07:12:57.494Z,20.10
2022-08-08T07:16:03.763Z,20.30
2022-08-08T07:18:40.742Z,20.30
2022-08-08T07:21:19.126Z,20.50
2022-08-08T07:24:01.621Z,20.50
2022-08-08T07:26:35.743Z,20.50
2022-08-08T07:29:20.310Z,20.60
2022-08-08T07:31:55.827Z,20.70
2022-08-08T07:34:31.700Z,20.80
2022-08-08T07:36:59.631Z,20.80
2022-08-08T07:39:55.818Z,21.00
2022-08-08T07:42:37.516Z,21.00
2022-08-08T07:45:14.998Z,21.20
2022-08-08T07:47:49.175Z,21.40
2022-08-08T07:54:44.192Z,21.60
2022-08-08T07:57:28.436Z,21.70
2022-08-08T08:00:15.821Z,21.90
2022-08-08T08:03:01.986Z,22.00
2022-08-08T08:05:33.691Z,22.10
2022-08-08T08:08:05.212Z,22.20
2022-08-08T08:10:35.617Z,22.30
2022-08-08T08:13:25.757Z,22.30
2022-08-08T08:16:12.037Z,22.30
2022-08-08T08:18:55.478Z,22.40
2022-08-08T08:21:44.256Z,22.60
2022-08-08T08:24:30.802Z,22.60
2022-08-08T08:27:04.718Z,22.80
2022-08-08T08:29:39.836Z,22.80
2022-08-08T08:32:10.947Z,22.90
2022-08-08T08:34:43.219Z,22.90
2022-08-08T08:37:16.468Z,23.00
2022-08-08T08:40:00.278Z,23.00
2022-08-08T08:42:36.255Z,23.10
2022-08-08T08:45:20.738Z,23.10
2022-08-08T08:47:54.553Z,23.20
2022-08-08T08:54:40.402Z,23.40
2022-08-08T08:57:17.130Z,23.40
2022-08-08T08:59:59.502Z,23.60
2022-08-08T09:02:31.430Z,23.70
2022-08-08T09:05:02.630Z,23.80
2022-08-08T09:07:39.121Z,23.90
2022-08-08T09:10:29.107Z,23.90
2022-08-08T09:12:58.092Z,24.00
2022-08-08T09:15:37.485Z,24.10
2022-08-08T09:18:09.094Z,24.20
2022-08-08T09:21:58.840Z,24.30
2022-08-08T09:23:26.150Z,24.40
2022-08-08T09:26:06.286Z,24.60
2022-08-08T09:28:40.334Z,24.60
2022-08-08T09:31:15.029Z,24.80
2022-08-08T09:34:15.413Z,25.00
2022-08-08T09:36:38.979Z,25.20
2022-08-08T09:39:15.389Z,25.40
2022-08-08T09:41:55.017Z,25.60
2022-08-08T09:44:42.724Z,25.80
2022-08-08T09:48:05.066Z,26.00
2022-08-08T09:54:37.465Z,26.20
2022-08-08T09:57:05.331Z,26.40
2022-08-08T10:00:02.044Z,26.50
2022-08-08T10:02:36.486Z,26.60
2022-08-08T10:05:14.500Z,26.60
2022-08-08T10:07:59.852Z,26.80
2022-08-08T10:10:33.584Z,26.90
2022-08-08T10:13:29.972Z,27.00
2022-08-08T10:16:09.164Z,27.10
2022-08-08T10:18:36.723Z,27.30
2022-08-08T10:21:25.229Z,27.20
2022-08-08T10:24:05.294Z,27.30
2022-08-08T10:27:00.154Z,27.40
2022-08-08T10:29:44.074Z,27.50
2022-08-08T10:32:34.349Z,27.60
2022-08-08T10:35:11.862Z,27.80
2022-08-08T10:38:05.320Z,27.90
2022-08-08T10:40:33.922Z,27.90
2022-08-08T10:43:06.176Z,27.90
2022-08-08T10:45:56.436Z,28.00
2022-08-08T10:48:57.477Z,28.00
2022-08-08T10:55:53.257Z,28.30
2022-08-08T10:58:36.946Z,28.50
2022-08-08T11:01:15.821Z,28.60
2022-08-08T11:03:57.979Z,28.80
2022-08-08T11:06:34.512Z,28.90
2022-08-08T11:09:09.706Z,29.10
2022-08-08T11:12:06.439Z,29.30
2022-08-08T11:14:50.976Z,29.50
2022-08-08T11:18:00.585Z,29.60
2022-08-08T11:20:27.237Z,29.80
2022-08-08T11:22:59.768Z,30.10
2022-08-08T11:25:51.707Z,30.30
2022-08-08T11:28:35.159Z,30.50
2022-08-08T11:31:11.179Z,30.60
2022-08-08T11:33:52.686Z,30.70
2022-08-08T11:36:36.419Z,30.80
2022-08-08T11:39:12.780Z,31.00
2022-08-08T11:41:40.888Z,31.10
2022-08-08T11:44:10.903Z,31.10
2022-08-08T11:46:39.721Z,31.20
2022-08-08T11:49:11.590Z,31.50
2022-08-08T11:55:35.823Z,31.70
2022-08-08T11:58:15.892Z,31.90
2022-08-08T12:00:56.448Z,32.10
2022-08-08T12:03:24.601Z,32.30
2022-08-08T12:06:15.372Z,32.40
2022-08-08T12:08:43.115Z,32.70
2022-08-08T12:11:18.155Z,32.80
2022-08-08T12:14:03.583Z,32.90
2022-08-08T12:16:39.586Z,33.00
2022-08-08T12:19:31.223Z,33.20
2022-08-08T12:22:09.434Z,33.30
2022-08-08T12:24:51.556Z,33.30
2022-08-08T12:27:21.135Z,33.50
2022-08-08T12:30:33.321Z,33.70
2022-08-08T12:33:09.401Z,33.60
2022-08-08T12:35:39.942Z,33.70
2022-08-08T12:38:10.496Z,33.90
2022-08-08T12:40:58.529Z,34.10
2022-08-08T12:43:43.838Z,34.10
2022-08-08T12:46:26.304Z,34.00
2022-08-08T12:49:43.554Z,34.10
2022-08-08T12:56:19.153Z,34.20
2022-08-08T12:58:51.805Z,33.80
2022-08-08T13:01:24.268Z,33.90
2022-08-08T13:03:53.974Z,34.20
2022-08-08T13:06:21.115Z,34.40
2022-08-08T13:08:53.447Z,34.60
2022-08-08T13:11:28.608Z,34.60
2022-08-08T13:14:17.372Z,34.90
2022-08-08T13:16:49.419Z,35.00
2022-08-08T13:19:20.180Z,35.10
2022-08-08T13:21:55.492Z,35.20
2022-08-08T13:24:47.917Z,35.10
2022-08-08T13:27:19.518Z,35.20
2022-08-08T13:29:52.925Z,35.10
2022-08-08T13:32:37.711Z,35.30
2022-08-08T13:35:25.128Z,35.60
2022-08-08T13:38:06.901Z,35.50
2022-08-08T13:40:41.321Z,35.50
2022-08-08T13:43:21.097Z,35.70
2022-08-08T13:45:52.807Z,35.60
2022-08-08T13:48:25.913Z,35.90
2022-08-08T13:50:57.719Z,35.90
2022-08-08T13:58:08.878Z,36.20
2022-08-08T14:00:45.061Z,36.00
2022-08-08T14:03:47.232Z,36.10
2022-08-08T14:06:32.380Z,36.10
2022-08-08T14:08:59.706Z,36.20
2022-08-08T14:11:28.024Z,36.40
2022-08-08T14:13:59.795Z,36.60
2022-08-08T14:16:31.198Z,36.60
2022-08-08T14:18:59.442Z,36.60
2022-08-08T14:21:49.143Z,36.40
2022-08-08T14:24:29.720Z,36.40
2022-08-08T14:26:56.809Z,36.70
2022-08-08T14:29:30.097Z,36.60
2022-08-08T14:32:10.642Z,36.40
2022-08-08T14:34:53.861Z,36.30
2022-08-08T14:37:21.517Z,36.70
2022-08-08T14:40:06.366Z,36.80
2022-08-08T14:42:55.073Z,37.00
2022-08-08T14:45:29.025Z,37.10
2022-08-08T14:48:02.761Z,37.40
2022-08-08T14:50:38.080Z,37.70
2022-08-08T14:56:53.551Z,37.80
2022-08-08T14:59:31.386Z,37.70
2022-08-08T15:02:07.486Z,37.60
2022-08-08T15:04:35.109Z,37.50
2022-08-08T15:07:02.755Z,37.60
2022-08-08T15:09:31.172Z,38.00
2022-08-08T15:11:57.885Z,38.30
2022-08-08T15:14:26.838Z,38.10
2022-08-08T15:16:54.344Z,38.10
2022-08-08T15:19:21.518Z,38.10
2022-08-08T15:21:50.622Z,37.90
2022-08-08T15:24:17.392Z,37.50
2022-08-08T15:26:52.267Z,37.60
2022-08-08T15:29:22.361Z,37.90
2022-08-08T15:32:17.895Z,38.00
2022-08-08T15:34:38.685Z,38.10
2022-08-08T15:37:05.845Z,38.40
2022-08-08T15:39:38.138Z,38.50
2022-08-08T15:42:13.018Z,38.70
2022-08-08T15:44:42.085Z,38.90
2022-08-08T15:47:16.106Z,39.00
2022-08-08T15:49:47.849Z,39.10
2022-08-08T15:52:15.590Z,39.00
2022-08-08T15:59:01.503Z,39.30
2022-08-08T16:01:40.854Z,38.70
2022-08-08T16:04:15.966Z,38.50
2022-08-08T16:06:47.704Z,38.60
2022-08-08T16:13:02.457Z,38.90
2022-08-08T16:13:12.069Z,39.00
2022-08-08T16:14:53.455Z,38.90
2022-08-08T16:17:57.542Z,39.00
2022-08-08T16:20:13.020Z,39.00
2022-08-08T16:22:41.628Z,39.10
2022-08-08T16:25:09.301Z,38.80
2022-08-08T16:27:36.978Z,38.80
2022-08-08T16:30:13.407Z,38.80
2022-08-08T16:33:20.023Z,38.90
2022-08-08T16:36:02.784Z,38.50
2022-08-08T16:38:31.975Z,38.60
2022-08-08T16:41:01.837Z,38.50
2022-08-08T16:43:28.861Z,38.80
2022-08-08T16:46:44.297Z,38.70
2022-08-08T16:48:56.024Z,38.70
2022-08-08T16:55:01.178Z,38.30
2022-08-08T16:55:20.753Z,38.30
2022-08-08T16:58:13.841Z,38.30
2022-08-08T17:00:26.999Z,38.30
2022-08-08T17:02:54.115Z,37.90
2022-08-08T17:05:21.089Z,37.50
2022-08-08T17:07:51.208Z,37.60
2022-08-08T17:10:19.341Z,37.40
2022-08-08T17:12:52.706Z,37.40
2022-08-08T17:15:21.281Z,37.30
2022-08-08T17:18:02.463Z,36.90
2022-08-08T17:20:32.059Z,36.60
2022-08-08T17:23:18.449Z,36.40
2022-08-08T17:25:53.459Z,36.10
2022-08-08T17:28:34.299Z,35.90
2022-08-08T17:31:44.282Z,36.10
2022-08-08T17:34:52.812Z,35.90
2022-08-08T17:36:37.267Z,35.50
2022-08-08T17:39:05.402Z,35.50
2022-08-08T17:41:58.101Z,35.50
2022-08-08T17:44:26.830Z,35.60
2022-08-08T17:46:55.532Z,35.50
2022-08-08T17:49:24.903Z,35.40
2022-08-08T17:51:55.363Z,35.20
2022-08-08T17:58:50.286Z,34.70
2022-08-08T18:01:29.854Z,34.50
2022-08-08T18:04:04.686Z,34.50
2022-08-08T18:06:35.879Z,34.00
2022-08-08T18:09:10.198Z,33.70
2022-08-08T18:11:38.580Z,33.70
2022-08-08T18:14:21.770Z,33.60
2022-08-08T18:16:52.879Z,33.30
2022-08-08T18:19:21.863Z,33.10
2022-08-08T18:22:00.910Z,32.70
2022-08-08T18:24:30.183Z,32.30
2022-08-08T18:26:57.626Z,32.10
2022-08-08T18:29:33.005Z,31.70
2022-08-08T18:32:03.580Z,31.50
2022-08-08T18:34:31.011Z,31.20
2022-08-08T18:37:00.589Z,30.90
2022-08-08T18:39:29.172Z,30.70
2022-08-08T18:42:02.959Z,30.60
2022-08-08T18:44:32.889Z,30.40
2022-08-08T18:47:02.341Z,30.20
2022-08-08T18:49:32.674Z,30.00
2022-08-08T18:52:08.873Z,29.80
2022-08-08T18:59:11.047Z,29.50
2022-08-08T19:02:25.733Z,29.30
2022-08-08T19:04:27.913Z,29.10
2022-08-08T19:06:56.487Z,28.90
2022-08-08T19:09:49.285Z,28.80
2022-08-08T19:12:13.451Z,28.70
2022-08-08T19:14:40.465Z,28.60
2022-08-08T19:17:10.638Z,28.50
2022-08-08T19:19:44.151Z,28.40
2022-08-08T19:22:26.166Z,28.30
2022-08-08T19:26:01.106Z,28.10
2022-08-08T19:27:55.574Z,28.00
2022-08-08T19:30:26.314Z,28.00
2022-08-08T19:32:54.162Z,27.80
2022-08-08T19:35:44.078Z,27.80
2022-08-08T19:38:12.962Z,27.70
2022-08-08T19:40:44.226Z,27.50
2022-08-08T19:43:11.933Z,27.50
2022-08-08T19:45:59.989Z,27.40
2022-08-08T19:48:29.084Z,27.30
2022-08-08T19:50:59.077Z,27.30
2022-08-08T19:53:51.094Z,27.20
2022-08-08T20:00:32.231Z,27.00
2022-08-08T20:03:00.235Z,26.90
2022-08-08T20:06:14.185Z,26.80
2022-08-08T20:08:39.522Z,26.80
2022-08-08T20:11:01.080Z,26.70
2022-08-08T20:14:33.510Z,26.70
2022-08-08T20:16:16.023Z,26.70
2022-08-08T20:18:52.643Z,26.60
2022-08-08T20:21:25.081Z,26.60
2022-08-08T20:23:54.172Z,26.50
2022-08-08T20:26:29.852Z,26.60
2022-08-08T20:29:00.238Z,26.50
2022-08-08T20:31:28.168Z,26.40
2022-08-08T20:34:29.509Z,26.40
2022-08-08T20:36:59.474Z,26.40
2022-08-08T20:39:26.957Z,26.30
2022-08-08T20:42:00.709Z,26.30
2022-08-08T20:44:27.520Z,26.30
2022-08-08T20:46:54.277Z,26.30
2022-08-08T20:49:22.128Z,26.30
2022-08-08T20:51:59.311Z,26.20
2022-08-08T20:54:28.265Z,26.20
2022-08-08T20:57:33.271Z,26.20
2022-08-08T21:00:00.465Z,26.20
2022-08-08T21:02:27.693Z,26.20
2022-08-08T21:05:00.944Z,26.20
2022-08-08T21:07:47.083Z,26.20
2022-08-08T21:10:16.453Z,26.10
2022-08-08T21:12:44.569Z,26.10
2022-08-08T21:15:16.562Z,26.10
2022-08-08T21:18:00.106Z,26.00
2022-08-08T21:20:34.620Z,26.00
2022-08-08T21:23:08.873Z,26.00
2022-08-08T21:25:36.732Z,26.00
2022-08-08T21:28:09.376Z,26.00
2022-08-08T21:30:41.932Z,26.00
2022-08-08T21:33:11.647Z,26.00
2022-08-08T21:36:17.840Z,26.00
2022-08-08T21:38:25.747Z,26.00
2022-08-08T21:40:55.603Z,26.00
2022-08-08T21:43:31.317Z,26.00
2022-08-08T21:48:06.766Z,25.90
2022-08-08T21:48:53.032Z,25.90
2022-08-08T21:54:18.084Z,25.80
2022-08-08T21:54:31.997Z,25.80
2022-08-08T21:56:56.681Z,25.80
2022-08-08T21:59:26.004Z,25.80
2022-08-08T22:02:10.664Z,25.70
2022-08-08T22:04:37.446Z,25.70
2022-08-08T22:07:04.166Z,25.70
2022-08-08T22:09:40.705Z,25.70
2022-08-08T22:12:09.742Z,25.60
2022-08-08T22:14:36.778Z,25.50
2022-08-08T22:17:04.081Z,25.50
2022-08-08T22:20:12.849Z,25.40
2022-08-08T22:22:17.993Z,25.40
2022-08-08T22:24:44.742Z,25.30
2022-08-08T22:27:11.522Z,25.20
2022-08-08T22:30:01.113Z,25.30
2022-08-08T22:32:28.615Z,25.20
2022-08-08T22:34:55.409Z,25.00
2022-08-08T22:37:49.474Z,25.00
2022-08-08T22:40:16.364Z,24.80
2022-08-08T22:42:45.658Z,24.80
2022-08-08T22:45:14.734Z,24.90
2022-08-08T22:47:47.197Z,24.60
2022-08-08T22:50:25.596Z,24.60
2022-08-08T22:53:22.323Z,24.20
2022-08-08T22:55:59.266Z,24.20
2022-08-08T23:02:50.330Z,24.30
2022-08-08T23:05:21.437Z,24.30
2022-08-08T23:07:56.826Z,24.20
2022-08-08T23:10:26.795Z,24.20
2022-08-08T23:12:54.595Z,24.00
2022-08-08T23:16:39.107Z,24.20
2022-08-08T23:18:11.837Z,23.70
2022-08-08T23:20:39.923Z,23.70
2022-08-08T23:23:06.749Z,23.60
2022-08-08T23:25:37.391Z,23.50
2022-08-08T23:28:15.619Z,23.90
2022-08-08T23:30:45.573Z,23.70
2022-08-08T23:33:19.128Z,24.00
2022-08-08T23:36:07.516Z,23.80
2022-08-08T23:38:35.023Z,23.50
2022-08-08T23:41:02.418Z,24.20
2022-08-08T23:51:41.622Z,24.30
2022-08-08T23:54:39.018Z,23.50
2022-08-08T23:56:51.984Z,23.10
2022-08-08T23:59:20.712Z,22.90
